Tuesday, June 19, 2018, 3:54 PM EDT
Back to Local

KEWR, Newark International Airport

Location: Elizabeth, NJ, United States Lat: 40.683
Local Time: 3:54 PM EDT (19:54 GMT) Lon: -74.167
Time Zone: US/Eastern Elev: 16 ft

Show me the last for .
Show Decoded

2018-06-19 14:51 METAR KEWR 191851Z 32012G21KT 10SM FEW055 SCT250 32/11 A2979 RMK AO2 SLP086
                 T03170111 =
2018-06-19 13:51 METAR KEWR 191751Z 34010G18KT 10SM FEW055 SCT250 32/15 A2979 RMK AO2 SLP088
                 T03170150 10317 20256 50003 =
2018-06-19 12:51 METAR KEWR 191651Z 33011G15KT 10SM FEW050 FEW100 BKN250 30/16 A2980 RMK AO2
                 SLP089 T03000156 =
2018-06-19 11:51 METAR KEWR 191551Z 34011G16KT 10SM FEW045 SCT090 BKN250 31/18 A2980 RMK AO2
                 SLP090 T03060178 =
2018-06-19 10:51 METAR KEWR 191451Z 35015KT 10SM SCT040 SCT090 BKN250 30/19 A2979 RMK AO2 SLP086
                 T03000189 53003 =
2018-06-19 09:51 METAR KEWR 191351Z 34011G19KT 10SM FEW035 SCT090 SCT150 BKN250 29/19 A2977 RMK
                 AO2 SLP081 T02940194 $ =
2018-06-19 08:51 METAR KEWR 191251Z 33013KT 10SM FEW040 SCT085 BKN140 BKN250 28/21 A2977 RMK AO2
                 SLP080 T02780211 $ =
2018-06-19 07:51 METAR KEWR 191151Z 27007KT 10SM FEW040 SCT080 BKN140 BKN250 26/22 A2978 RMK AO2
                 SLP083 60000 70031 T02560222 10261 20244 51016 $ =
2018-06-19 06:51 METAR KEWR 191051Z 27006KT 10SM FEW060 SCT085 BKN140 BKN250 25/23 A2977 RMK AO2
                 SLP080 T02500228 $ =
2018-06-19 05:51 METAR KEWR 190951Z 26003KT 10SM BKN150 BKN260 24/23 A2975 RMK AO2 SLP073
                 T02440228 $ =
2018-06-19 04:51 METAR KEWR 190851Z 28008KT 10SM BKN150 BKN260 24/23 A2973 RMK AO2 SLP066 60000
                 T02440228 55012 $ =
2018-06-19 03:51 METAR KEWR 190751Z 26009KT 10SM FEW100 OVC150 25/23 A2972 RMK AO2 SLP065
                 T02500228 $ =
2018-06-19 02:51 METAR KEWR 190651Z 23010KT 10SM SCT070 BKN100 BKN140 24/23 A2973 RMK AO2 RAE49
                 SLP068 P0000 T02440228 $ =
2018-06-19 01:51 METAR KEWR 190551Z 26013G22KT 5SM -RA BR FEW019 SCT065 OVC110 25/23 A2976 RMK
                 AO2 PK WND 25030/0534 RAB30 SLP078 FRQ LTGIC DSNT W CB DSNT W MOV SE P0017 60031
                 T02500233 10322 20244 55019 $ =
2018-06-19 00:51 METAR KEWR 190451Z 23010KT 10SM FEW070 BKN190 OVC250 25/22 A2975 RMK AO2 SLP075
                 T02500222 403560211 $ =
2018-06-18 23:51 METAR KEWR 190351Z 21008KT 10SM FEW050 SCT190 BKN250 25/22 A2979 RMK AO2 SLP086
                 T02500222 $ =
2018-06-18 22:51 METAR KEWR 190251Z 21008KT 10SM FEW050 SCT140 BKN260 24/23 A2982 RMK AO2 SLP097
                 60014 T02440228 50015 $ =
2018-06-18 21:51 METAR KEWR 190151Z 23013G18KT 10SM FEW045 SCT120 SCT170 BKN250 26/23 A2983 RMK
                 AO2 LTG DSNT E-S RAE05 TSE35 SLP099 OCNL LTGICCC DSNT E-DSNT S CB DSNT E-DSNT S
                 MOV SE P0001 T02560228 $ =
2018-06-18 21:35 METAR KEWR 190135Z 22010KT 10SM FEW045 SCT120 BKN150 BKN260 26/23 A2982 RMK AO2
                 LTG DSNT E-SW RAE05 TSE35 FRQ LTGICCC DSNT E-DSNT S CB DSNT E-DSNT S MOV SE
                 P0001 T02560228 $ =
2018-06-18 20:51 METAR KEWR 190051Z 29007G26KT 5SM +TSRA BR FEW025 SCT047CB BKN100 BKN150 BKN260
                 25/23 A2981 RMK AO2 PK WND 29033/0031 WSHFT 0019 LTG DSNT ALQDS RAB19 TSB00
                 SLP095 FRQ LTGICCCCG OHD TS OHD MOV SE P0013 T02500228 $ =
2018-06-18 20:34 METAR KEWR 190034Z 29022G33KT 5SM +TSRA FEW020 SCT042CB BKN120 OVC200 27/22
                 A2982 RMK AO2 PK WND 29033/0031 WSHFT 0019 LTG DSNT SW-N RAB19 TSB00 PRESRR FRQ
                 LTGICCGCA OHD TS OHD MOV SE P0001 T02720222 =
2018-06-18 20:00 METAR KEWR 190000Z 22016G21KT 10SM TS FEW045CB SCT100 BKN160 OVC260 32/21 A2978
                 RMK AO2 LTG DSNT W AND NW TSB00 FRQ LTGICCG VC W-VC NW TS VC W-VC NW MOV SE CB
                 DSNT NE MOV SE T03220211 =
2018-06-18 19:51 METAR KEWR 182351Z 21015G22KT 10SM FEW045 SCT140 BKN210 OVC260 32/21 A2977 RMK
                 AO2 LTG DSNT W AND NW SLP081 CB DSNT NE AND DSNT W-DSNT NW MOV SE T03220211
                 10356 20322 56020 =
2018-06-18 18:51 METAR KEWR 182251Z 23015G24KT 10SM FEW050 FEW170 OVC260 33/21 A2977 RMK AO2 PK
                 WND 25027/2157 SLP082 T03330211 =
2018-06-18 17:51 METAR KEWR 182151Z 22015G23KT 10SM FEW050 BKN250 34/21 A2980 RMK AO2 SLP092
                 T03440211 =
2018-06-18 16:51 METAR KEWR 182051Z 23017G24KT 10SM FEW050 BKN250 36/21 A2983 RMK AO2 SLP101
                 T03560211 56027 =

Support USWX by starting your Amazon purchase here.